createdAt,value
2017-11-26T00:00:26.666Z,3.20
2017-11-26T00:02:54.092Z,3.30
2017-11-26T00:05:21.537Z,3.30
2017-11-26T00:07:48.976Z,3.30
2017-11-26T00:10:17.178Z,3.40
2017-11-26T00:12:44.637Z,3.30
2017-11-26T00:15:12.092Z,3.30
2017-11-26T00:17:39.549Z,3.30
2017-11-26T00:20:06.989Z,3.40
2017-11-26T00:22:35.184Z,3.40
2017-11-26T00:25:02.704Z,3.30
2017-11-26T00:27:30.967Z,3.30
2017-11-26T00:29:58.410Z,3.30
2017-11-26T00:32:25.863Z,3.20
2017-11-26T00:34:53.343Z,3.20
2017-11-26T00:37:20.783Z,3.20
2017-11-26T00:39:48.239Z,3.20
2017-11-26T00:42:15.927Z,3.10
2017-11-26T00:44:44.196Z,3.10
2017-11-26T00:47:11.741Z,3.00
2017-11-26T00:49:39.195Z,3.10
2017-11-26T00:52:06.654Z,3.10
2017-11-26T00:54:34.212Z,3.10
2017-11-26T00:57:01.671Z,3.00
2017-11-26T00:59:29.127Z,3.10
2017-11-26T01:01:56.684Z,3.00
2017-11-26T01:04:24.144Z,3.00
2017-11-26T01:06:51.586Z,3.00
2017-11-26T01:09:19.007Z,3.10
2017-11-26T01:11:46.505Z,3.00
2017-11-26T01:14:13.947Z,3.00
2017-11-26T01:16:41.385Z,3.10
2017-11-26T01:19:08.820Z,3.00
2017-11-26T01:21:36.344Z,2.90
2017-11-26T01:24:03.802Z,2.90
2017-11-26T01:26:31.343Z,2.90
2017-11-26T01:28:58.798Z,2.90
2017-11-26T01:31:26.242Z,3.00
2017-11-26T01:33:53.680Z,2.90
2017-11-26T01:36:21.155Z,2.90
2017-11-26T01:38:48.601Z,2.90
2017-11-26T01:41:16.044Z,2.90
2017-11-26T01:43:43.487Z,2.80
2017-11-26T01:46:10.937Z,2.80
2017-11-26T01:48:38.407Z,2.80
2017-11-26T01:51:05.839Z,2.70
2017-11-26T01:53:34.044Z,2.70
2017-11-26T01:56:01.492Z,2.70
2017-11-26T01:58:28.948Z,2.70
2017-11-26T02:00:56.390Z,2.70
2017-11-26T02:03:24.625Z,2.70
2017-11-26T02:05:52.067Z,2.60
2017-11-26T02:08:19.508Z,2.70
2017-11-26T02:10:46.985Z,2.70
2017-11-26T02:13:14.421Z,2.70
2017-11-26T02:15:41.899Z,2.60
2017-11-26T02:18:09.335Z,2.70
2017-11-26T02:20:36.815Z,2.70
2017-11-26T02:23:04.259Z,2.60
2017-11-26T02:25:31.712Z,2.70
2017-11-26T02:27:59.196Z,2.70
2017-11-26T02:30:26.727Z,2.70
2017-11-26T02:33:06.109Z,2.70
2017-11-26T02:38:42.843Z,2.70
2017-11-26T02:41:10.288Z,2.70
2017-11-26T02:43:37.757Z,2.70
2017-11-26T02:46:05.246Z,2.70
2017-11-26T02:48:32.686Z,2.70
2017-11-26T02:51:00.254Z,2.70
2017-11-26T02:53:27.756Z,2.70
2017-11-26T02:55:55.957Z,2.70
2017-11-26T02:58:23.436Z,2.60
2017-11-26T03:00:50.991Z,2.70
2017-11-26T03:03:18.469Z,2.70
2017-11-26T03:05:45.912Z,2.70
2017-11-26T03:08:13.352Z,2.70
2017-11-26T03:10:40.844Z,2.70
2017-11-26T03:13:08.297Z,2.70
2017-11-26T03:15:35.768Z,2.70
2017-11-26T03:18:03.224Z,2.70
2017-11-26T03:20:30.666Z,2.60
2017-11-26T03:22:58.100Z,2.60
2017-11-26T03:25:25.553Z,2.70
2017-11-26T03:27:53.052Z,2.70
2017-11-26T03:30:20.476Z,2.60
2017-11-26T03:32:47.928Z,2.60
2017-11-26T03:35:15.392Z,2.60
2017-11-26T03:37:42.837Z,2.60
2017-11-26T03:40:10.305Z,2.60
2017-11-26T03:42:37.753Z,2.60
2017-11-26T03:45:05.211Z,2.60
2017-11-26T03:47:32.684Z,2.60
2017-11-26T03:50:00.136Z,2.60
2017-11-26T03:52:27.602Z,2.60
2017-11-26T03:54:55.041Z,2.60
2017-11-26T03:57:22.509Z,2.60
2017-11-26T03:59:49.953Z,2.60
2017-11-26T04:02:17.396Z,2.60
2017-11-26T04:04:44.837Z,2.60
2017-11-26T04:07:13.865Z,2.60
2017-11-26T04:09:41.305Z,2.60
2017-11-26T04:12:08.779Z,2.60
2017-11-26T04:14:36.237Z,2.60
2017-11-26T04:17:03.676Z,2.60
2017-11-26T04:19:31.113Z,2.60
2017-11-26T04:21:58.556Z,2.60
2017-11-26T04:24:26.026Z,2.50
2017-11-26T04:26:53.505Z,2.50
2017-11-26T04:29:20.943Z,2.60
2017-11-26T04:34:23.153Z,2.50
2017-11-26T04:36:50.712Z,2.40
2017-11-26T04:39:19.112Z,2.50
2017-11-26T04:41:46.563Z,2.50
2017-11-26T04:44:14.006Z,2.50
2017-11-26T04:46:41.559Z,2.50
2017-11-26T04:49:09.107Z,2.50
2017-11-26T04:51:36.546Z,2.60
2017-11-26T04:54:03.972Z,2.60
2017-11-26T04:56:31.414Z,2.60
2017-11-26T04:58:58.903Z,2.70
2017-11-26T05:01:26.392Z,2.70
2017-11-26T05:03:53.970Z,2.80
2017-11-26T05:06:21.435Z,2.80
2017-11-26T05:08:49.069Z,2.90
2017-11-26T05:11:16.496Z,2.90
2017-11-26T05:13:43.945Z,3.00
2017-11-26T05:16:11.541Z,3.00
2017-11-26T05:18:38.976Z,3.00
2017-11-26T05:21:06.411Z,3.00
2017-11-26T05:23:33.876Z,3.10
2017-11-26T05:26:01.300Z,3.10
2017-11-26T05:28:28.869Z,3.20
2017-11-26T05:30:56.288Z,3.20
2017-11-26T05:33:23.836Z,3.20
2017-11-26T05:35:51.291Z,3.20
2017-11-26T05:38:18.732Z,3.30
2017-11-26T05:40:46.321Z,3.30
2017-11-26T05:43:13.751Z,3.30
2017-11-26T05:45:41.191Z,3.30
2017-11-26T05:48:08.640Z,3.30
2017-11-26T05:50:36.077Z,3.30
2017-11-26T05:53:04.318Z,3.40
2017-11-26T05:55:31.773Z,3.40
2017-11-26T05:57:59.237Z,3.40
2017-11-26T06:00:26.676Z,3.40
2017-11-26T06:02:54.144Z,3.40
2017-11-26T06:05:21.584Z,3.50
2017-11-26T06:07:49.031Z,3.40
2017-11-26T06:10:16.488Z,3.50
2017-11-26T06:12:43.943Z,3.40
2017-11-26T06:15:11.396Z,3.40
2017-11-26T06:17:38.856Z,3.50
2017-11-26T06:20:06.316Z,3.50
2017-11-26T06:22:33.778Z,3.50
2017-11-26T06:25:01.222Z,3.50
2017-11-26T06:27:28.652Z,3.50
2017-11-26T06:29:56.915Z,3.60
2017-11-26T06:32:24.410Z,3.60
2017-11-26T06:34:51.844Z,3.60
2017-11-26T06:37:19.280Z,3.60
2017-11-26T06:39:46.723Z,3.60
2017-11-26T06:42:14.173Z,3.60
2017-11-26T06:44:41.632Z,3.60
2017-11-26T06:47:09.163Z,3.60
2017-11-26T06:49:36.618Z,3.50
2017-11-26T06:52:04.035Z,3.60
2017-11-26T06:54:31.476Z,3.60
2017-11-26T06:56:59.716Z,3.60
2017-11-26T06:59:27.178Z,3.60
2017-11-26T07:01:54.668Z,3.60
2017-11-26T07:04:22.113Z,3.70
2017-11-26T07:06:49.539Z,3.70
2017-11-26T07:09:17.017Z,3.70
2017-11-26T07:11:44.556Z,3.70
2017-11-26T07:14:11.999Z,3.80
2017-11-26T07:16:39.452Z,3.80
2017-11-26T07:19:06.884Z,3.80
2017-11-26T07:21:34.329Z,3.90
2017-11-26T07:24:02.563Z,3.90
2017-11-26T07:26:30.027Z,3.90
2017-11-26T07:28:57.481Z,3.90
2017-11-26T07:31:24.930Z,3.90
2017-11-26T07:33:52.396Z,3.90
2017-11-26T07:36:19.852Z,3.90
2017-11-26T07:38:48.788Z,3.80
2017-11-26T07:41:16.228Z,3.80
2017-11-26T07:43:44.424Z,3.90
2017-11-26T07:46:11.933Z,3.90
2017-11-26T07:48:39.372Z,3.90
2017-11-26T07:51:06.841Z,4.00
2017-11-26T07:53:34.278Z,4.00
2017-11-26T07:56:01.736Z,4.00
2017-11-26T07:58:29.226Z,4.10
2017-11-26T08:00:56.759Z,4.10
2017-11-26T08:03:24.211Z,4.10
2017-11-26T08:05:51.795Z,4.10
2017-11-26T08:08:19.332Z,4.10
2017-11-26T08:10:46.775Z,4.10
2017-11-26T08:13:14.243Z,4.20
2017-11-26T08:15:41.775Z,4.20
2017-11-26T08:18:09.258Z,4.20
2017-11-26T08:20:36.711Z,4.20
2017-11-26T08:23:04.160Z,4.20
2017-11-26T08:25:31.671Z,4.20
2017-11-26T08:27:59.140Z,4.20
2017-11-26T08:30:26.674Z,4.30
2017-11-26T08:32:54.141Z,4.30
2017-11-26T08:35:21.624Z,4.30
2017-11-26T08:37:49.080Z,4.30
2017-11-26T08:40:16.528Z,4.30
2017-11-26T08:42:43.980Z,4.40
2017-11-26T08:45:11.420Z,4.40
2017-11-26T08:47:38.916Z,4.50
2017-11-26T08:50:06.378Z,4.50
2017-11-26T08:52:33.820Z,4.50
2017-11-26T08:55:01.364Z,4.40
2017-11-26T08:57:28.806Z,4.30
2017-11-26T08:59:56.224Z,4.40
2017-11-26T09:02:24.443Z,4.40
2017-11-26T09:04:51.875Z,4.40
2017-11-26T09:10:19.282Z,4.40
2017-11-26T09:12:46.710Z,4.50
2017-11-26T09:15:14.145Z,4.60
2017-11-26T09:17:42.367Z,4.70
2017-11-26T09:20:09.804Z,4.60
2017-11-26T09:22:37.260Z,4.70
2017-11-26T09:25:04.674Z,4.70
2017-11-26T09:27:32.123Z,4.70
2017-11-26T09:29:59.571Z,4.70
2017-11-26T09:32:27.028Z,4.70
2017-11-26T09:34:54.576Z,4.70
2017-11-26T09:37:22.028Z,4.60
2017-11-26T09:39:49.466Z,4.70
2017-11-26T09:42:16.958Z,4.70
2017-11-26T09:44:44.410Z,4.60
2017-11-26T09:47:11.958Z,4.70
2017-11-26T09:49:39.379Z,4.70
2017-11-26T09:52:06.851Z,4.80
2017-11-26T09:54:34.280Z,4.90
2017-11-26T09:57:01.791Z,4.90
2017-11-26T09:59:29.272Z,4.90
2017-11-26T10:01:56.790Z,4.90
2017-11-26T10:04:24.243Z,4.90
2017-11-26T10:06:51.808Z,5.00
2017-11-26T10:09:19.241Z,5.00
2017-11-26T10:11:46.670Z,5.10
2017-11-26T10:14:14.115Z,5.10
2017-11-26T10:16:42.326Z,5.10
2017-11-26T10:19:09.918Z,5.10
2017-11-26T10:21:37.371Z,5.10
2017-11-26T10:24:04.818Z,5.10
2017-11-26T10:26:32.304Z,5.10
2017-11-26T10:28:59.828Z,5.10
2017-11-26T10:31:27.305Z,5.20
2017-11-26T10:33:55.531Z,5.20
2017-11-26T10:36:22.972Z,5.20
2017-11-26T10:38:51.195Z,5.10
2017-11-26T10:41:18.636Z,5.10
2017-11-26T10:43:46.105Z,5.10
2017-11-26T10:46:13.543Z,5.10
2017-11-26T10:48:40.982Z,5.10
2017-11-26T10:51:08.423Z,5.10
2017-11-26T10:53:35.897Z,5.10
2017-11-26T10:56:03.421Z,5.10
2017-11-26T10:58:31.637Z,5.10
2017-11-26T11:00:59.079Z,5.10
2017-11-26T11:03:27.400Z,5.20
2017-11-26T11:05:55.009Z,5.20
2017-11-26T11:08:23.203Z,5.20
2017-11-26T11:10:50.687Z,5.20
2017-11-26T11:13:18.143Z,5.30
2017-11-26T11:15:45.688Z,5.30
2017-11-26T11:18:13.118Z,5.40
2017-11-26T11:20:40.620Z,5.40
2017-11-26T11:23:08.044Z,5.40
2017-11-26T11:25:35.492Z,5.40
2017-11-26T11:28:02.943Z,5.40
2017-11-26T11:30:30.448Z,5.50
2017-11-26T11:32:57.995Z,5.40
2017-11-26T11:35:25.453Z,5.50
2017-11-26T11:37:52.913Z,5.50
2017-11-26T11:40:20.373Z,5.40
2017-11-26T11:42:47.808Z,5.40
2017-11-26T11:45:15.269Z,5.40
2017-11-26T11:47:42.756Z,5.40
2017-11-26T11:50:10.195Z,5.50
2017-11-26T11:52:37.628Z,5.60
2017-11-26T11:55:05.080Z,5.60
2017-11-26T11:57:33.276Z,5.60
2017-11-26T12:00:00.752Z,5.50
2017-11-26T12:02:28.199Z,5.60
2017-11-26T12:04:55.635Z,5.60
2017-11-26T12:07:23.127Z,5.60
2017-11-26T12:09:50.577Z,5.60
2017-11-26T12:12:18.055Z,5.60
2017-11-26T12:14:45.487Z,5.60
2017-11-26T12:17:12.949Z,5.70
2017-11-26T12:19:40.432Z,5.70
2017-11-26T12:22:07.867Z,5.70
2017-11-26T12:24:35.308Z,5.70
2017-11-26T12:27:02.755Z,5.70
2017-11-26T12:29:30.235Z,5.80
2017-11-26T12:31:57.681Z,5.80
2017-11-26T12:34:25.118Z,5.80
2017-11-26T12:36:52.562Z,5.80
2017-11-26T12:39:19.984Z,8.10
2017-11-26T12:41:47.426Z,5.80
2017-11-26T12:44:14.877Z,5.90
2017-11-26T12:46:42.363Z,5.80
2017-11-26T12:49:10.554Z,5.90
2017-11-26T12:51:37.991Z,5.80
2017-11-26T12:54:06.867Z,5.80
2017-11-26T12:56:34.314Z,5.70
2017-11-26T12:59:01.767Z,5.80
2017-11-26T13:01:29.210Z,5.80
2017-11-26T13:03:56.672Z,5.90
2017-11-26T13:06:24.124Z,5.90
2017-11-26T13:08:51.573Z,5.90
2017-11-26T13:11:19.006Z,5.90
2017-11-26T13:13:46.529Z,6.00
2017-11-26T13:16:13.967Z,6.00
2017-11-26T13:18:41.434Z,6.10
2017-11-26T13:21:08.867Z,6.00
2017-11-26T13:23:36.423Z,6.00
2017-11-26T13:26:03.853Z,6.00
2017-11-26T13:28:31.292Z,5.90
2017-11-26T13:30:59.485Z,5.90
2017-11-26T13:33:26.925Z,5.80
2017-11-26T13:35:55.147Z,5.90
2017-11-26T13:38:22.600Z,5.80
2017-11-26T13:40:50.797Z,5.80
2017-11-26T13:43:18.288Z,5.80
2017-11-26T13:45:45.740Z,5.90
2017-11-26T13:48:13.181Z,5.80
2017-11-26T13:50:40.673Z,5.80
2017-11-26T13:53:08.092Z,5.90
2017-11-26T13:55:35.523Z,5.90
2017-11-26T13:58:03.743Z,6.00
2017-11-26T14:00:31.203Z,5.90
2017-11-26T14:02:59.422Z,5.90
2017-11-26T14:05:26.945Z,6.00
2017-11-26T14:07:54.400Z,6.00
2017-11-26T14:10:21.853Z,6.00
2017-11-26T14:12:49.307Z,6.00
2017-11-26T14:15:16.871Z,5.90
2017-11-26T14:17:44.325Z,5.90
2017-11-26T14:20:11.765Z,5.90
2017-11-26T14:22:39.210Z,5.90
2017-11-26T14:25:06.701Z,5.90
2017-11-26T14:27:34.156Z,5.80
2017-11-26T14:30:01.597Z,5.90
2017-11-26T14:32:29.058Z,5.90
2017-11-26T14:34:56.496Z,5.90
2017-11-26T14:37:23.932Z,5.80
2017-11-26T14:39:51.368Z,5.90
2017-11-26T14:42:19.620Z,5.90
2017-11-26T14:44:47.065Z,5.90
2017-11-26T14:47:14.523Z,5.90
2017-11-26T14:49:41.976Z,5.90
2017-11-26T14:52:09.427Z,5.90
2017-11-26T14:54:36.868Z,5.90
2017-11-26T14:57:04.314Z,6.00
2017-11-26T14:59:31.775Z,6.00
2017-11-26T15:01:59.352Z,6.00
2017-11-26T15:04:26.802Z,6.00
2017-11-26T15:06:54.281Z,6.00
2017-11-26T15:09:21.717Z,6.00
2017-11-26T15:11:49.279Z,6.00
2017-11-26T15:14:16.705Z,5.90
2017-11-26T15:16:44.141Z,5.90
2017-11-26T15:19:11.576Z,5.90
2017-11-26T15:21:39.019Z,5.90
2017-11-26T15:24:06.470Z,6.00
2017-11-26T15:26:33.927Z,6.00
2017-11-26T15:29:01.366Z,5.90
2017-11-26T15:31:28.779Z,6.00
2017-11-26T15:33:56.212Z,6.00
2017-11-26T15:36:23.652Z,6.00
2017-11-26T15:38:51.075Z,6.00
2017-11-26T15:41:18.539Z,6.00
2017-11-26T15:43:45.994Z,6.00
2017-11-26T15:46:14.192Z,6.00
2017-11-26T15:48:41.621Z,6.00
2017-11-26T15:51:09.849Z,6.10
2017-11-26T15:53:37.429Z,6.10
2017-11-26T15:56:04.865Z,6.10
2017-11-26T15:58:32.308Z,6.10
2017-11-26T16:00:59.802Z,6.10
2017-11-26T16:03:28.056Z,6.00
2017-11-26T16:05:55.516Z,6.00
2017-11-26T16:08:22.951Z,6.00
2017-11-26T16:10:50.392Z,6.00
2017-11-26T16:13:17.814Z,6.00
2017-11-26T16:15:46.033Z,6.00
2017-11-26T16:18:13.520Z,6.00
2017-11-26T16:20:40.952Z,6.10
2017-11-26T16:23:08.375Z,6.10
2017-11-26T16:25:35.812Z,6.10
2017-11-26T16:28:03.244Z,6.10
2017-11-26T16:30:30.687Z,6.10
2017-11-26T16:32:58.130Z,6.00
2017-11-26T16:35:25.704Z,6.00
2017-11-26T16:37:53.148Z,6.00
2017-11-26T16:40:20.582Z,6.10
2017-11-26T16:42:48.022Z,6.10
2017-11-26T16:45:15.452Z,6.10
2017-11-26T16:47:43.707Z,6.10
2017-11-26T16:50:11.160Z,6.00
2017-11-26T16:52:38.615Z,6.10
2017-11-26T16:55:06.048Z,6.10
2017-11-26T16:57:33.541Z,6.10
2017-11-26T17:00:01.004Z,6.10
2017-11-26T17:02:28.561Z,6.20
2017-11-26T17:04:55.997Z,6.10
2017-11-26T17:07:23.435Z,6.10
2017-11-26T17:09:50.855Z,6.20
2017-11-26T17:12:19.092Z,6.10
2017-11-26T17:14:46.507Z,6.00
2017-11-26T17:17:13.949Z,6.10
2017-11-26T17:19:42.136Z,6.10
2017-11-26T17:22:09.588Z,6.00
2017-11-26T17:24:37.012Z,6.10
2017-11-26T17:27:04.541Z,6.10
2017-11-26T17:29:32.012Z,6.20
2017-11-26T17:31:59.423Z,6.10
2017-11-26T17:34:26.908Z,6.10
2017-11-26T17:36:54.332Z,6.10
2017-11-26T17:39:21.788Z,6.20
2017-11-26T17:41:49.256Z,6.20
2017-11-26T17:44:16.687Z,6.20
2017-11-26T17:46:44.116Z,6.30
2017-11-26T17:49:12.321Z,6.20
2017-11-26T17:51:39.751Z,6.10
2017-11-26T17:54:07.203Z,6.20
2017-11-26T17:56:34.623Z,6.10
2017-11-26T17:59:02.071Z,6.10
2017-11-26T18:01:29.548Z,6.10
2017-11-26T18:03:57.007Z,6.10
2017-11-26T18:06:24.446Z,6.20
2017-11-26T18:08:51.872Z,6.10
2017-11-26T18:11:19.304Z,6.10
2017-11-26T18:13:47.505Z,6.00
2017-11-26T18:16:14.945Z,6.00
2017-11-26T18:18:43.371Z,6.10
2017-11-26T18:21:10.799Z,6.10
2017-11-26T18:23:38.233Z,6.00
2017-11-26T18:26:06.552Z,6.10
2017-11-26T18:28:33.992Z,6.00
2017-11-26T18:31:01.424Z,6.10
2017-11-26T18:33:29.673Z,6.10
2017-11-26T18:35:57.116Z,6.10
2017-11-26T18:38:24.554Z,6.10
2017-11-26T18:40:52.016Z,6.10
2017-11-26T18:43:19.463Z,6.10
2017-11-26T18:45:46.900Z,6.00
2017-11-26T18:48:14.324Z,6.00
2017-11-26T18:50:42.547Z,5.90
2017-11-26T18:53:10.124Z,5.90
2017-11-26T18:55:37.584Z,6.00
2017-11-26T18:58:05.012Z,6.00
2017-11-26T19:00:32.448Z,6.00
2017-11-26T19:02:59.943Z,6.00
2017-11-26T19:05:27.392Z,6.00
2017-11-26T19:07:54.847Z,6.00
2017-11-26T19:10:22.308Z,6.00
2017-11-26T19:12:49.768Z,5.90
2017-11-26T19:15:17.228Z,5.90
2017-11-26T19:17:44.680Z,5.90
2017-11-26T19:20:12.140Z,5.90
2017-11-26T19:22:39.595Z,5.90
2017-11-26T19:25:07.438Z,5.90
2017-11-26T19:27:34.839Z,5.90
2017-11-26T19:30:02.377Z,5.90
2017-11-26T19:32:29.845Z,5.90
2017-11-26T19:34:57.280Z,5.90
2017-11-26T19:37:24.747Z,5.90
2017-11-26T19:39:52.196Z,5.80
2017-11-26T19:42:19.633Z,5.80
2017-11-26T19:44:47.207Z,5.80
2017-11-26T19:47:14.801Z,5.70
2017-11-26T19:49:42.223Z,5.70
2017-11-26T19:52:09.656Z,5.70
2017-11-26T19:54:37.082Z,5.80
2017-11-26T19:57:04.520Z,5.80
2017-11-26T19:59:31.964Z,5.80
2017-11-26T20:01:59.400Z,5.80
2017-11-26T20:04:26.837Z,5.80
2017-11-26T20:06:54.274Z,5.80
2017-11-26T20:09:21.707Z,5.70
2017-11-26T20:11:49.247Z,5.70
2017-11-26T20:14:16.692Z,5.60
2017-11-26T20:16:44.147Z,5.60
2017-11-26T20:19:11.572Z,5.70
2017-11-26T20:21:39.044Z,5.70
2017-11-26T20:24:06.463Z,5.60
2017-11-26T20:26:33.899Z,5.70
2017-11-26T20:29:01.332Z,5.60
2017-11-26T20:31:28.752Z,5.60
2017-11-26T20:33:56.250Z,5.60
2017-11-26T20:36:23.701Z,5.50
2017-11-26T20:38:51.164Z,5.50
2017-11-26T20:41:18.637Z,5.50
2017-11-26T20:43:46.080Z,5.40
2017-11-26T20:46:13.552Z,5.40
2017-11-26T20:48:41.112Z,5.40
2017-11-26T20:51:08.553Z,5.40
2017-11-26T20:53:36.019Z,5.40
2017-11-26T20:56:03.458Z,5.50
2017-11-26T20:58:30.880Z,5.40
2017-11-26T21:00:58.313Z,5.40
2017-11-26T21:03:26.562Z,5.30
2017-11-26T21:05:54.010Z,5.30
2017-11-26T21:08:21.577Z,5.30
2017-11-26T21:10:49.012Z,5.30
2017-11-26T21:13:16.440Z,5.30
2017-11-26T21:15:43.939Z,5.20
2017-11-26T21:18:11.388Z,5.20
2017-11-26T21:20:38.816Z,5.20
2017-11-26T21:23:06.263Z,5.20
2017-11-26T21:25:33.688Z,5.10
2017-11-26T21:28:01.211Z,5.00
2017-11-26T21:30:28.641Z,5.00
2017-11-26T21:32:56.078Z,5.00
2017-11-26T21:35:24.302Z,4.90
2017-11-26T21:37:51.730Z,4.80
2017-11-26T21:40:19.155Z,4.90
2017-11-26T21:42:47.392Z,4.80
2017-11-26T21:45:14.823Z,4.80
2017-11-26T21:47:42.304Z,4.90
2017-11-26T21:50:09.733Z,4.90
2017-11-26T21:52:37.177Z,4.90
2017-11-26T21:55:04.614Z,4.80
2017-11-26T21:57:32.832Z,4.90
2017-11-26T22:00:00.389Z,4.80
2017-11-26T22:02:27.823Z,4.80
2017-11-26T22:04:55.250Z,4.80
2017-11-26T22:07:23.451Z,4.80
2017-11-26T22:09:50.943Z,4.70
2017-11-26T22:12:18.391Z,4.80
2017-11-26T22:14:45.856Z,4.70
2017-11-26T22:17:13.287Z,4.70
2017-11-26T22:19:40.772Z,4.80
2017-11-26T22:22:08.220Z,4.80
2017-11-26T22:24:35.890Z,4.80
2017-11-26T22:27:03.317Z,4.90
2017-11-26T22:29:30.754Z,4.80
2017-11-26T22:31:58.359Z,4.90
2017-11-26T22:34:25.922Z,4.90
2017-11-26T22:36:53.357Z,4.90
2017-11-26T22:39:20.817Z,4.90
2017-11-26T22:41:48.248Z,4.90
2017-11-26T22:44:15.730Z,4.90
2017-11-26T22:46:43.156Z,4.80
2017-11-26T22:49:10.590Z,4.80
2017-11-26T22:51:39.767Z,4.70
2017-11-26T22:54:07.509Z,4.70
2017-11-26T22:56:34.980Z,4.70
2017-11-26T22:59:02.423Z,4.70
2017-11-26T23:01:29.879Z,4.70
2017-11-26T23:03:57.340Z,4.60
2017-11-26T23:06:24.780Z,4.60
2017-11-26T23:08:52.235Z,4.60
2017-11-26T23:11:19.684Z,4.60
2017-11-26T23:13:47.130Z,4.70
2017-11-26T23:16:14.556Z,4.70
2017-11-26T23:18:42.744Z,4.60
2017-11-26T23:21:10.952Z,4.60
2017-11-26T23:23:38.508Z,4.60
2017-11-26T23:26:05.956Z,4.70
2017-11-26T23:28:33.447Z,4.60
2017-11-26T23:31:00.883Z,4.60
2017-11-26T23:33:28.439Z,4.60
2017-11-26T23:35:55.919Z,4.50
2017-11-26T23:38:23.461Z,4.50
2017-11-26T23:40:50.910Z,4.40
2017-11-26T23:43:18.368Z,4.50
2017-11-26T23:45:45.848Z,4.40
2017-11-26T23:48:13.387Z,4.40
2017-11-26T23:50:40.812Z,4.40
2017-11-26T23:53:08.246Z,4.40
2017-11-26T23:55:36.467Z,4.40
2017-11-26T23:58:03.879Z,4.30
